Queen City Park, Vermont
Current Conditions -  °F | °C
As of 3:54 PM on Monday 24 Nov 2014 (Local Time) from KBTV Reporting Station
Scattered Clouds Scattered Clouds  
Wind Chill: 66°   Ceiling: Unl
Heat Index: 66°   Visibility: 10mi
Dew Point: 56°   Wind: 14mph
Humidity: 70%   Direction: 180°S
Pressure: 29.38"   Gusts: 28mph
Location:  44.446°N, 73.1725°W
Report Text: KBTV 242054Z 18012G24KT 10SM SCT090 19/13 A2938 RMK AO2 PK WND 18028/2012 SLP948 T01890133 55012
Loading
Personal Weather Stations






























Interactive Weather Map New forecast layout! Learn more

10-Day Weather Forecast

Advertisements
Track Severe Weather on mobile